sensor_id;sensor_type;location;lat;lon;timestamp;pressure;altitude;pressure_sealevel;temperature;humidity
35676;BME280;21790;42.668;23.298;2023-04-28T00:02:17;94911.22;;;14.66;32.08
35676;BME280;21790;42.668;23.298;2023-04-28T00:04:43;94904.59;;;14.63;31.50
35676;BME280;21790;42.668;23.298;2023-04-28T00:07:13;94914.50;;;14.50;31.81
35676;BME280;21790;42.668;23.298;2023-04-28T00:09:41;94912.56;;;14.56;32.17
35676;BME280;21790;42.668;23.298;2023-04-28T00:12:12;94911.91;;;14.46;32.45
35676;BME280;21790;42.668;23.298;2023-04-28T00:14:40;94908.25;;;14.40;31.97
35676;BME280;21790;42.668;23.298;2023-04-28T00:17:06;94907.41;;;14.49;31.94
35676;BME280;21790;42.668;23.298;2023-04-28T00:19:34;94913.16;;;14.45;32.23
35676;BME280;21790;42.668;23.298;2023-04-28T00:21:59;94910.34;;;14.31;32.12
35676;BME280;21790;42.668;23.298;2023-04-28T00:24:25;94906.53;;;14.43;32.19
35676;BME280;21790;42.668;23.298;2023-04-28T00:26:50;94905.22;;;14.38;32.31
35676;BME280;21790;42.668;23.298;2023-04-28T00:29:16;94916.41;;;14.29;32.14
35676;BME280;21790;42.668;23.298;2023-04-28T00:31:43;94912.00;;;14.22;32.15
35676;BME280;21790;42.668;23.298;2023-04-28T00:34:08;94906.91;;;14.21;32.50
35676;BME280;21790;42.668;23.298;2023-04-28T00:36:38;94914.09;;;14.13;32.41
35676;BME280;21790;42.668;23.298;2023-04-28T00:39:03;94915.34;;;14.27;32.45
35676;BME280;21790;42.668;23.298;2023-04-28T00:41:29;94924.38;;;14.07;32.51
35676;BME280;21790;42.668;23.298;2023-04-28T00:43:54;94924.56;;;14.18;32.65
35676;BME280;21790;42.668;23.298;2023-04-28T00:46:21;94924.75;;;14.00;32.54
35676;BME280;21790;42.668;23.298;2023-04-28T00:48:47;94933.06;;;14.00;32.82
35676;BME280;21790;42.668;23.298;2023-04-28T00:51:13;94927.63;;;14.20;32.63
35676;BME280;21790;42.668;23.298;2023-04-28T00:53:39;94924.38;;;14.07;32.79
35676;BME280;21790;42.668;23.298;2023-04-28T00:56:04;94926.19;;;14.10;32.79
35676;BME280;21790;42.668;23.298;2023-04-28T00:58:30;94927.53;;;14.14;32.69
35676;BME280;21790;42.668;23.298;2023-04-28T01:01:04;94937.75;;;13.94;32.90
35676;BME280;21790;42.668;23.298;2023-04-28T01:03:34;94937.00;;;13.93;32.62
35676;BME280;21790;42.668;23.298;2023-04-28T01:06:03;94944.75;;;14.04;32.66
35676;BME280;21790;42.668;23.298;2023-04-28T01:08:29;94932.22;;;13.94;32.86
35676;BME280;21790;42.668;23.298;2023-04-28T01:10:55;94929.63;;;13.90;32.54
35676;BME280;21790;42.668;23.298;2023-04-28T01:13:20;94937.66;;;13.88;32.87
35676;BME280;21790;42.668;23.298;2023-04-28T01:15:46;94933.91;;;13.76;33.15
35676;BME280;21790;42.668;23.298;2023-04-28T01:18:11;94943.13;;;13.82;32.75
35676;BME280;21790;42.668;23.298;2023-04-28T01:20:39;94939.81;;;13.69;33.36
35676;BME280;21790;42.668;23.298;2023-04-28T01:23:04;94944.75;;;13.74;33.34
35676;BME280;21790;42.668;23.298;2023-04-28T01:25:30;94943.56;;;13.81;32.83
35676;BME280;21790;42.668;23.298;2023-04-28T01:27:55;94937.34;;;13.71;33.30
35676;BME280;21790;42.668;23.298;2023-04-28T01:30:21;94941.34;;;13.70;32.92
35676;BME280;21790;42.668;23.298;2023-04-28T01:32:46;94936.78;;;13.67;33.26
35676;BME280;21790;42.668;23.298;2023-04-28T01:35:11;94941.75;;;13.63;32.87
35676;BME280;21790;42.668;23.298;2023-04-28T01:37:37;94934.06;;;13.58;33.24
35676;BME280;21790;42.668;23.298;2023-04-28T01:40:03;94931.97;;;13.68;32.83
35676;BME280;21790;42.668;23.298;2023-04-28T01:42:28;94937.66;;;13.73;32.80
35676;BME280;21790;42.668;23.298;2023-04-28T01:44:54;94934.00;;;13.82;32.75
35676;BME280;21790;42.668;23.298;2023-04-28T01:47:19;94938.47;;;13.65;32.79
35676;BME280;21790;42.668;23.298;2023-04-28T01:49:45;94934.25;;;13.69;33.19
35676;BME280;21790;42.668;23.298;2023-04-28T01:52:12;94937.59;;;13.59;32.78
35676;BME280;21790;42.668;23.298;2023-04-28T01:54:37;94933.00;;;13.56;33.24
35676;BME280;21790;42.668;23.298;2023-04-28T01:57:03;94941.53;;;13.52;32.90
35676;BME280;21790;42.668;23.298;2023-04-28T01:59:28;94942.56;;;13.55;33.07
35676;BME280;21790;42.668;23.298;2023-04-28T02:01:54;94944.66;;;13.45;33.31
35676;BME280;21790;42.668;23.298;2023-04-28T02:04:19;94942.81;;;13.42;33.09
35676;BME280;21790;42.668;23.298;2023-04-28T02:06:45;94946.84;;;13.41;33.10
35676;BME280;21790;42.668;23.298;2023-04-28T02:09:10;94943.34;;;13.55;32.51
35676;BME280;21790;42.668;23.298;2023-04-28T02:11:36;94938.41;;;13.35;33.05
35676;BME280;21790;42.668;23.298;2023-04-28T02:14:01;94940.53;;;13.17;33.54
35676;BME280;21790;42.668;23.298;2023-04-28T02:16:28;94950.63;;;13.29;33.20
35676;BME280;21790;42.668;23.298;2023-04-28T02:18:53;94950.28;;;13.36;33.45
35676;BME280;21790;42.668;23.298;2023-04-28T02:21:21;94945.19;;;13.34;32.84
35676;BME280;21790;42.668;23.298;2023-04-28T02:23:46;94953.06;;;13.36;33.15
35676;BME280;21790;42.668;23.298;2023-04-28T02:26:12;94950.75;;;13.34;33.42
35676;BME280;21790;42.668;23.298;2023-04-28T02:28:38;94952.75;;;13.34;33.40
35676;BME280;21790;42.668;23.298;2023-04-28T02:31:04;94951.78;;;13.37;33.42
35676;BME280;21790;42.668;23.298;2023-04-28T02:33:29;94955.22;;;13.32;33.15
35676;BME280;21790;42.668;23.298;2023-04-28T02:35:58;94964.84;;;13.46;32.79
35676;BME280;21790;42.668;23.298;2023-04-28T02:38:24;94960.38;;;13.24;33.33
35676;BME280;21790;42.668;23.298;2023-04-28T02:40:55;94962.09;;;13.22;33.56
35676;BME280;21790;42.668;23.298;2023-04-28T02:43:21;94962.19;;;13.27;33.60
35676;BME280;21790;42.668;23.298;2023-04-28T02:45:47;94958.84;;;13.23;33.98
35676;BME280;21790;42.668;23.298;2023-04-28T02:48:13;94962.72;;;13.17;33.93
35676;BME280;21790;42.668;23.298;2023-04-28T02:50:38;94968.22;;;13.26;33.77
35676;BME280;21790;42.668;23.298;2023-04-28T02:53:03;94968.06;;;13.29;33.65
35676;BME280;21790;42.668;23.298;2023-04-28T02:55:30;94960.38;;;13.24;33.70
35676;BME280;21790;42.668;23.298;2023-04-28T02:57:56;94969.25;;;13.14;33.95
35676;BME280;21790;42.668;23.298;2023-04-28T03:00:21;94972.91;;;13.20;33.79
35676;BME280;21790;42.668;23.298;2023-04-28T03:02:47;94981.09;;;13.05;34.21
35676;BME280;21790;42.668;23.298;2023-04-28T03:05:12;94978.72;;;13.22;33.66
35676;BME280;21790;42.668;23.298;2023-04-28T03:07:39;94980.53;;;13.01;33.79
35676;BME280;21790;42.668;23.298;2023-04-28T03:10:04;94982.66;;;13.06;33.56
35676;BME280;21790;42.668;23.298;2023-04-28T03:12:30;94979.56;;;13.13;33.42
35676;BME280;21790;42.668;23.298;2023-04-28T03:14:56;94977.16;;;12.97;33.67
35676;BME280;21790;42.668;23.298;2023-04-28T03:17:21;94983.88;;;13.14;33.69
35676;BME280;21790;42.668;23.298;2023-04-28T03:19:47;94979.81;;;13.24;33.40
35676;BME280;21790;42.668;23.298;2023-04-28T03:22:12;94980.34;;;13.14;33.74
35676;BME280;21790;42.668;23.298;2023-04-28T03:24:38;94980.56;;;13.25;33.39
35676;BME280;21790;42.668;23.298;2023-04-28T03:27:03;94989.56;;;13.20;33.24
35676;BME280;21790;42.668;23.298;2023-04-28T03:29:29;94995.47;;;13.04;33.38
35676;BME280;21790;42.668;23.298;2023-04-28T03:31:56;95000.38;;;13.09;33.58
35676;BME280;21790;42.668;23.298;2023-04-28T03:34:21;95004.38;;;13.08;33.53
35676;BME280;21790;42.668;23.298;2023-04-28T03:36:47;95014.88;;;13.04;33.50
35676;BME280;21790;42.668;23.298;2023-04-28T03:39:12;95010.44;;;12.97;33.30
35676;BME280;21790;42.668;23.298;2023-04-28T03:41:37;95015.50;;;12.98;33.54
35676;BME280;21790;42.668;23.298;2023-04-28T03:44:03;95020.06;;;13.11;33.36
35676;BME280;21790;42.668;23.298;2023-04-28T03:46:28;95020.09;;;13.20;33.43
35676;BME280;21790;42.668;23.298;2023-04-28T03:48:54;95019.06;;;13.32;32.92
35676;BME280;21790;42.668;23.298;2023-04-28T03:51:19;95024.72;;;13.14;32.91
35676;BME280;21790;42.668;23.298;2023-04-28T03:53:45;95033.25;;;13.34;32.48
35676;BME280;21790;42.668;23.298;2023-04-28T03:56:10;95029.31;;;13.17;33.18
35676;BME280;21790;42.668;23.298;2023-04-28T03:58:36;95034.34;;;13.27;33.21
35676;BME280;21790;42.668;23.298;2023-04-28T04:01:01;95041.50;;;13.10;33.41
35676;BME280;21790;42.668;23.298;2023-04-28T04:03:27;95045.78;;;13.20;33.37
35676;BME280;21790;42.668;23.298;2023-04-28T04:05:52;95035.84;;;13.14;33.35
35676;BME280;21790;42.668;23.298;2023-04-28T04:08:19;95051.78;;;13.28;32.92
35676;BME280;21790;42.668;23.298;2023-04-28T04:10:45;95050.50;;;13.38;32.96
35676;BME280;21790;42.668;23.298;2023-04-28T04:13:11;95054.25;;;13.26;32.92
35676;BME280;21790;42.668;23.298;2023-04-28T04:15:36;95055.78;;;13.27;32.47
35676;BME280;21790;42.668;23.298;2023-04-28T04:18:02;95051.31;;;13.29;32.68
35676;BME280;21790;42.668;23.298;2023-04-28T04:20:27;95045.91;;;13.35;32.84
35676;BME280;21790;42.668;23.298;2023-04-28T04:22:52;95058.47;;;13.45;32.68
35676;BME280;21790;42.668;23.298;2023-04-28T04:25:18;95054.75;;;13.48;32.75
35676;BME280;21790;42.668;23.298;2023-04-28T04:27:43;95066.06;;;13.68;32.65
35676;BME280;21790;42.668;23.298;2023-04-28T04:30:09;95064.44;;;13.76;32.43
35676;BME280;21790;42.668;23.298;2023-04-28T04:32:34;95067.75;;;13.90;32.11
35676;BME280;21790;42.668;23.298;2023-04-28T04:35:00;95062.03;;;14.08;32.16
35676;BME280;21790;42.668;23.298;2023-04-28T04:37:25;95064.47;;;14.39;31.60
35676;BME280;21790;42.668;23.298;2023-04-28T04:39:51;95063.59;;;14.47;31.53
35676;BME280;21790;42.668;23.298;2023-04-28T04:42:19;95067.94;;;14.78;30.94
35676;BME280;21790;42.668;23.298;2023-04-28T04:44:46;95071.09;;;14.85;31.01
35676;BME280;21790;42.668;23.298;2023-04-28T04:47:15;95066.56;;;15.02;30.31
35676;BME280;21790;42.668;23.298;2023-04-28T04:49:40;95079.03;;;15.07;30.42
35676;BME280;21790;42.668;23.298;2023-04-28T04:52:06;95078.53;;;15.23;30.45
35676;BME280;21790;42.668;23.298;2023-04-28T04:54:32;95080.25;;;15.35;29.77
35676;BME280;21790;42.668;23.298;2023-04-28T04:56:59;95085.00;;;15.64;29.75
35676;BME280;21790;42.668;23.298;2023-04-28T04:59:24;95088.13;;;15.72;29.44
35676;BME280;21790;42.668;23.298;2023-04-28T05:01:50;95087.97;;;15.96;29.62
35676;BME280;21790;42.668;23.298;2023-04-28T05:04:16;95086.91;;;16.13;28.68
35676;BME280;21790;42.668;23.298;2023-04-28T05:06:41;95087.53;;;16.23;28.42
35676;BME280;21790;42.668;23.298;2023-04-28T05:09:07;95086.22;;;16.18;28.45
35676;BME280;21790;42.668;23.298;2023-04-28T05:11:33;95067.41;;;16.13;28.66
35676;BME280;21790;42.668;23.298;2023-04-28T05:13:58;95096.50;;;16.32;28.76
35676;BME280;21790;42.668;23.298;2023-04-28T05:16:24;95083.09;;;16.57;28.32
35676;BME280;21790;42.668;23.298;2023-04-28T05:18:50;95093.97;;;16.75;28.20
35676;BME280;21790;42.668;23.298;2023-04-28T05:21:16;95097.13;;;16.88;28.45
35676;BME280;21790;42.668;23.298;2023-04-28T05:23:41;95098.03;;;16.74;28.58
35676;BME280;21790;42.668;23.298;2023-04-28T05:26:07;95098.44;;;16.93;28.33
35676;BME280;21790;42.668;23.298;2023-04-28T05:28:32;95099.31;;;17.04;28.48
35676;BME280;21790;42.668;23.298;2023-04-28T05:30:59;95092.56;;;17.17;28.09
35676;BME280;21790;42.668;23.298;2023-04-28T05:33:25;95094.38;;;17.20;27.96
35676;BME280;21790;42.668;23.298;2023-04-28T05:35:50;95092.56;;;17.17;28.16
35676;BME280;21790;42.668;23.298;2023-04-28T05:38:16;95091.53;;;17.14;28.18
35676;BME280;21790;42.668;23.298;2023-04-28T05:40:43;95088.47;;;17.12;28.35
35676;BME280;21790;42.668;23.298;2023-04-28T05:43:08;95090.66;;;17.02;28.51
35676;BME280;21790;42.668;23.298;2023-04-28T05:45:34;95080.00;;;17.32;28.20
35676;BME280;21790;42.668;23.298;2023-04-28T05:48:00;95095.94;;;17.26;28.22
35676;BME280;21790;42.668;23.298;2023-04-28T05:50:26;95092.84;;;17.50;28.22
35676;BME280;21790;42.668;23.298;2023-04-28T05:52:53;95084.16;;;17.79;27.79
35676;BME280;21790;42.668;23.298;2023-04-28T05:55:19;95094.53;;;17.42;27.86
35676;BME280;21790;42.668;23.298;2023-04-28T05:57:46;95093.13;;;17.57;27.71
35676;BME280;21790;42.668;23.298;2023-04-28T06:00:13;95096.38;;;17.45;28.25
35676;BME280;21790;42.668;23.298;2023-04-28T06:02:39;95097.47;;;17.58;27.86
35676;BME280;21790;42.668;23.298;2023-04-28T06:05:06;95091.03;;;17.84;27.28
35676;BME280;21790;42.668;23.298;2023-04-28T06:07:32;95095.19;;;17.94;27.10
35676;BME280;21790;42.668;23.298;2023-04-28T06:09:57;95093.97;;;17.64;27.83
35676;BME280;21790;42.668;23.298;2023-04-28T06:12:23;95091.56;;;17.82;27.75
35676;BME280;21790;42.668;23.298;2023-04-28T06:14:51;95082.72;;;18.01;27.53
35676;BME280;21790;42.668;23.298;2023-04-28T06:17:51;95090.31;;;18.43;26.81
35676;BME280;21790;42.668;23.298;2023-04-28T06:20:17;95094.22;;;18.73;32.59
35676;BME280;21790;42.668;23.298;2023-04-28T06:22:43;95091.25;;;19.21;34.30
35676;BME280;21790;42.668;23.298;2023-04-28T06:25:16;95103.25;;;19.66;34.44
35676;BME280;21790;42.668;23.298;2023-04-28T06:27:55;95091.16;;;20.16;31.04
35676;BME280;21790;42.668;23.298;2023-04-28T06:30:35;95093.94;;;20.32;30.77
35676;BME280;21790;42.668;23.298;2023-04-28T06:33:28;95098.09;;;20.72;30.35
35676;BME280;21790;42.668;23.298;2023-04-28T06:35:54;95097.34;;;20.66;31.31
35676;BME280;21790;42.668;23.298;2023-04-28T06:41:06;95063.81;;;20.27;25.50
35676;BME280;21790;42.668;23.298;2023-04-28T06:43:38;95089.38;;;20.18;25.86
35676;BME280;21790;42.668;23.298;2023-04-28T06:46:07;95057.75;;;20.12;25.31
35676;BME280;21790;42.668;23.298;2023-04-28T06:48:43;95086.81;;;20.15;25.69
35676;BME280;21790;42.668;23.298;2023-04-28T06:51:33;95091.47;;;19.90;25.50
35676;BME280;21790;42.668;23.298;2023-04-28T06:54:02;95097.28;;;20.03;25.64
35676;BME280;21790;42.668;23.298;2023-04-28T06:56:28;95090.47;;;19.82;25.80
35676;BME280;21790;42.668;23.298;2023-04-28T06:58:54;95078.00;;;19.72;25.70
35676;BME280;21790;42.668;23.298;2023-04-28T07:01:23;95076.44;;;19.82;25.62
35676;BME280;21790;42.668;23.298;2023-04-28T07:03:50;95086.41;;;19.66;25.61
35676;BME280;21790;42.668;23.298;2023-04-28T07:06:16;95091.19;;;19.99;25.63
35676;BME280;21790;42.668;23.298;2023-04-28T07:08:48;95082.44;;;20.19;25.76
35676;BME280;21790;42.668;23.298;2023-04-28T07:13:49;95085.78;;;20.18;24.95
35676;BME280;21790;42.668;23.298;2023-04-28T07:16:19;95085.78;;;20.18;32.22
35676;BME280;21790;42.668;23.298;2023-04-28T07:18:48;95077.94;;;20.68;29.79
35676;BME280;21790;42.668;23.298;2023-04-28T07:21:27;95078.44;;;20.72;24.87
35676;BME280;21790;42.668;23.298;2023-04-28T07:23:54;95070.41;;;20.41;24.02
35676;BME280;21790;42.668;23.298;2023-04-28T07:26:53;95082.22;;;20.75;24.62
35676;BME280;21790;42.668;23.298;2023-04-28T07:44:59;95055.41;;;20.27;24.63
35676;BME280;21790;42.668;23.298;2023-04-28T08:06:45;95062.91;;;21.66;23.78
35676;BME280;21790;42.668;23.298;2023-04-28T08:09:13;95064.78;;;21.58;22.64
35676;BME280;21790;42.668;23.298;2023-04-28T08:15:16;95062.97;;;21.61;23.48
35676;BME280;21790;42.668;23.298;2023-04-28T08:17:42;95060.38;;;21.33;22.98
35676;BME280;21790;42.668;23.298;2023-04-28T08:20:08;95068.16;;;21.51;23.28
35676;BME280;21790;42.668;23.298;2023-04-28T08:22:34;95069.53;;;21.69;22.96
35676;BME280;21790;42.668;23.298;2023-04-28T08:25:00;95069.88;;;21.30;23.16
35676;BME280;21790;42.668;23.298;2023-04-28T08:27:26;95061.22;;;21.58;22.38
35676;BME280;21790;42.668;23.298;2023-04-28T08:29:56;95058.53;;;21.71;22.43
35676;BME280;21790;42.668;23.298;2023-04-28T08:32:23;95062.91;;;21.96;21.79
35676;BME280;21790;42.668;23.298;2023-04-28T08:34:49;95060.81;;;22.02;21.73
35676;BME280;21790;42.668;23.298;2023-04-28T08:37:17;95050.75;;;22.07;21.52
35676;BME280;21790;42.668;23.298;2023-04-28T08:39:43;95051.53;;;22.07;21.97
35676;BME280;21790;42.668;23.298;2023-04-28T08:42:08;95059.78;;;22.00;21.90
35676;BME280;21790;42.668;23.298;2023-04-28T08:44:39;95054.25;;;21.64;21.88
35676;BME280;21790;42.668;23.298;2023-04-28T08:47:12;95057.63;;;21.27;21.85
35676;BME280;21790;42.668;23.298;2023-04-28T08:49:40;95048.94;;;21.55;22.35
35676;BME280;21790;42.668;23.298;2023-04-28T08:52:10;95047.28;;;21.71;22.80
35676;BME280;21790;42.668;23.298;2023-04-28T08:54:38;95048.34;;;22.17;21.75
35676;BME280;21790;42.668;23.298;2023-04-28T08:57:07;95042.97;;;22.37;21.09
35676;BME280;21790;42.668;23.298;2023-04-28T08:59:36;95036.34;;;22.35;20.79
35676;BME280;21790;42.668;23.298;2023-04-28T09:02:05;95044.69;;;22.22;21.24
35676;BME280;21790;42.668;23.298;2023-04-28T09:07:11;95041.31;;;22.66;22.07
35676;BME280;21790;42.668;23.298;2023-04-28T09:09:41;95037.28;;;22.80;21.75
35676;BME280;21790;42.668;23.298;2023-04-28T09:12:09;95032.50;;;22.94;21.68
35676;BME280;21790;42.668;23.298;2023-04-28T09:14:37;95027.09;;;22.77;20.14
35676;BME280;21790;42.668;23.298;2023-04-28T09:17:10;95018.50;;;22.88;20.38
35676;BME280;21790;42.668;23.298;2023-04-28T09:19:40;95011.47;;;22.95;20.14
35676;BME280;21790;42.668;23.298;2023-04-28T09:22:09;95017.06;;;23.14;20.47
35676;BME280;21790;42.668;23.298;2023-04-28T09:24:37;95016.56;;;22.97;20.15
35676;BME280;21790;42.668;23.298;2023-04-28T09:27:09;95007.53;;;23.17;19.81
35676;BME280;21790;42.668;23.298;2023-04-28T09:29:37;95005.94;;;23.21;20.07
35676;BME280;21790;42.668;23.298;2023-04-28T09:32:27;95015.91;;;23.54;22.47
35676;BME280;21790;42.668;23.298;2023-04-28T09:34:54;95014.16;;;23.51;21.55
35676;BME280;21790;42.668;23.298;2023-04-28T09:37:23;94996.34;;;23.11;22.19
35676;BME280;21790;42.668;23.298;2023-04-28T09:47:47;94985.06;;;23.43;20.79
35676;BME280;21790;42.668;23.298;2023-04-28T09:50:19;94997.03;;;23.49;21.13
35676;BME280;21790;42.668;23.298;2023-04-28T09:52:56;94995.44;;;23.67;22.19
35676;BME280;21790;42.668;23.298;2023-04-28T09:55:25;94977.94;;;23.55;20.64
35676;BME280;21790;42.668;23.298;2023-04-28T10:01:05;94977.88;;;23.42;20.78
35676;BME280;21790;42.668;23.298;2023-04-28T10:03:35;94970.13;;;23.61;21.18
35676;BME280;21790;42.668;23.298;2023-04-28T10:06:06;94975.34;;;23.70;20.53
35676;BME280;21790;42.668;23.298;2023-04-28T10:08:33;94971.09;;;23.51;20.95
35676;BME280;21790;42.668;23.298;2023-04-28T10:11:03;94969.16;;;23.85;20.77
35676;BME280;21790;42.668;23.298;2023-04-28T10:16:41;94961.25;;;23.84;19.75
35676;BME280;21790;42.668;23.298;2023-04-28T10:19:08;94968.41;;;23.71;19.62
35676;BME280;21790;42.668;23.298;2023-04-28T10:21:44;94957.97;;;23.93;20.32
35676;BME280;21790;42.668;23.298;2023-04-28T10:24:33;94956.44;;;23.78;20.42
35676;BME280;21790;42.668;23.298;2023-04-28T10:27:30;94967.06;;;23.46;21.21
35676;BME280;21790;42.668;23.298;2023-04-28T10:30:18;94964.25;;;23.59;20.71
35676;BME280;21790;42.668;23.298;2023-04-28T10:32:45;94959.75;;;23.38;21.14
35676;BME280;21790;42.668;23.298;2023-04-28T10:38:20;94957.78;;;23.77;21.11
35676;BME280;21790;42.668;23.298;2023-04-28T10:40:53;94950.81;;;23.65;21.06
35676;BME280;21790;42.668;23.298;2023-04-28T10:56:24;94916.19;;;23.78;22.55
35676;BME280;21790;42.668;23.298;2023-04-28T10:58:56;94918.34;;;23.85;20.59
35676;BME280;21790;42.668;23.298;2023-04-28T11:01:31;94927.03;;;23.87;21.18
35676;BME280;21790;42.668;23.298;2023-04-28T11:04:07;94921.84;;;23.65;20.93
35676;BME280;21790;42.668;23.298;2023-04-28T11:06:44;94911.88;;;23.51;19.52
35676;BME280;21790;42.668;23.298;2023-04-28T11:14:36;94913.59;;;23.54;20.78
35676;BME280;21790;42.668;23.298;2023-04-28T11:25:18;94895.91;;;23.66;19.91
35676;BME280;21790;42.668;23.298;2023-04-28T11:27:43;94903.47;;;23.45;20.53
35676;BME280;21790;42.668;23.298;2023-04-28T11:30:40;94901.00;;;23.81;20.22
35676;BME280;21790;42.668;23.298;2023-04-28T11:33:26;94905.31;;;23.43;19.45
35676;BME280;21790;42.668;23.298;2023-04-28T11:35:52;94884.72;;;23.48;21.20
35676;BME280;21790;42.668;23.298;2023-04-28T11:38:18;94898.63;;;23.59;20.07
35676;BME280;21790;42.668;23.298;2023-04-28T11:40:56;94888.72;;;23.78;22.22
35676;BME280;21790;42.668;23.298;2023-04-28T11:43:30;94882.22;;;23.84;18.97
35676;BME280;21790;42.668;23.298;2023-04-28T11:45:56;94896.44;;;23.52;19.79
35676;BME280;21790;42.668;23.298;2023-04-28T11:48:21;94887.06;;;23.30;19.59
35676;BME280;21790;42.668;23.298;2023-04-28T11:50:50;94890.16;;;23.59;18.93
35676;BME280;21790;42.668;23.298;2023-04-28T11:53:45;94880.28;;;23.52;19.86
35676;BME280;21790;42.668;23.298;2023-04-28T11:58:59;94883.69;;;23.19;19.38
35676;BME280;21790;42.668;23.298;2023-04-28T12:01:29;94873.94;;;23.07;19.41
35676;BME280;21790;42.668;23.298;2023-04-28T12:03:59;94878.72;;;23.12;19.04
35676;BME280;21790;42.668;23.298;2023-04-28T12:06:30;94876.97;;;23.09;19.98
35676;BME280;21790;42.668;23.298;2023-04-28T12:09:21;94873.84;;;23.39;19.70
35676;BME280;21790;42.668;23.298;2023-04-28T12:11:54;94870.72;;;23.29;19.66
35676;BME280;21790;42.668;23.298;2023-04-28T12:14:24;94859.94;;;23.01;19.12
35676;BME280;21790;42.668;23.298;2023-04-28T12:17:06;94863.75;;;23.30;19.15
35676;BME280;21790;42.668;23.298;2023-04-28T12:19:51;94862.69;;;23.33;19.83
35676;BME280;21790;42.668;23.298;2023-04-28T12:22:18;94851.72;;;23.16;20.02
35676;BME280;21790;42.668;23.298;2023-04-28T12:25:04;94841.41;;;23.32;19.11
35676;BME280;21790;42.668;23.298;2023-04-28T12:27:31;94852.47;;;23.17;19.92
35676;BME280;21790;42.668;23.298;2023-04-28T12:29:58;94849.91;;;22.42;19.94
35676;BME280;21790;42.668;23.298;2023-04-28T12:32:41;94839.13;;;22.27;19.54
35676;BME280;21790;42.668;23.298;2023-04-28T12:42:56;94841.22;;;22.40;24.53
35676;BME280;21790;42.668;23.298;2023-04-28T12:45:22;94837.72;;;22.66;26.59
35676;BME280;21790;42.668;23.298;2023-04-28T12:47:50;94832.25;;;22.86;22.59
35676;BME280;21790;42.668;23.298;2023-04-28T12:50:16;94828.50;;;22.65;21.85
35676;BME280;21790;42.668;23.298;2023-04-28T12:52:42;94834.06;;;22.71;25.55
35676;BME280;21790;42.668;23.298;2023-04-28T12:55:08;94833.25;;;23.02;22.28
35676;BME280;21790;42.668;23.298;2023-04-28T12:57:34;94816.59;;;22.91;21.18
35676;BME280;21790;42.668;23.298;2023-04-28T13:00:14;94809.00;;;22.99;20.75
35676;BME280;21790;42.668;23.298;2023-04-28T13:02:45;94799.88;;;22.93;20.45
35676;BME280;21790;42.668;23.298;2023-04-28T13:05:11;94818.22;;;23.00;20.79
35676;BME280;21790;42.668;23.298;2023-04-28T13:12:50;94802.59;;;22.53;20.67
35676;BME280;21790;42.668;23.298;2023-04-28T13:15:18;94801.53;;;22.70;20.83
35676;BME280;21790;42.668;23.298;2023-04-28T13:17:47;94801.28;;;22.73;21.46
35676;BME280;21790;42.668;23.298;2023-04-28T13:20:41;94799.44;;;23.02;20.24
35676;BME280;21790;42.668;23.298;2023-04-28T13:23:07;94796.81;;;22.78;20.08
35676;BME280;21790;42.668;23.298;2023-04-28T13:25:33;94807.72;;;22.68;20.69
35676;BME280;21790;42.668;23.298;2023-04-28T13:28:02;94796.03;;;22.00;20.65
35676;BME280;21790;42.668;23.298;2023-04-28T13:30:35;94798.38;;;22.47;20.91
35676;BME280;21790;42.668;23.298;2023-04-28T13:33:07;94793.19;;;22.64;21.05
35676;BME280;21790;42.668;23.298;2023-04-28T13:35:47;94793.69;;;22.81;20.98
35676;BME280;21790;42.668;23.298;2023-04-28T13:38:26;94801.53;;;22.70;21.12
35676;BME280;21790;42.668;23.298;2023-04-28T13:46:19;94780.91;;;22.93;21.16
35676;BME280;21790;42.668;23.298;2023-04-28T13:48:49;94778.09;;;22.93;20.67
35676;BME280;21790;42.668;23.298;2023-04-28T13:51:16;94787.72;;;22.72;21.28
35676;BME280;21790;42.668;23.298;2023-04-28T13:53:42;94785.28;;;22.63;21.11
35676;BME280;21790;42.668;23.298;2023-04-28T13:56:09;94776.78;;;22.81;21.12
35676;BME280;21790;42.668;23.298;2023-04-28T13:58:36;94773.97;;;23.08;20.54
35676;BME280;21790;42.668;23.298;2023-04-28T14:01:02;94775.81;;;23.05;19.93
35676;BME280;21790;42.668;23.298;2023-04-28T14:03:30;94758.56;;;23.09;20.11
35676;BME280;21790;42.668;23.298;2023-04-28T14:05:57;94767.03;;;22.96;20.39
35676;BME280;21790;42.668;23.298;2023-04-28T14:08:23;94769.50;;;22.86;20.41
35676;BME280;21790;42.668;23.298;2023-04-28T14:10:58;94765.41;;;23.13;20.42
35676;BME280;21790;42.668;23.298;2023-04-28T14:13:32;94777.63;;;22.76;20.96
35676;BME280;21790;42.668;23.298;2023-04-28T14:19:49;94765.41;;;22.29;20.82
35676;BME280;21790;42.668;23.298;2023-04-28T14:22:37;94756.47;;;22.57;20.77
35676;BME280;21790;42.668;23.298;2023-04-28T14:25:03;94763.97;;;22.67;21.09
35676;BME280;21790;42.668;23.298;2023-04-28T14:27:29;94759.19;;;22.62;21.09
35676;BME280;21790;42.668;23.298;2023-04-28T14:35:05;94749.69;;;22.91;20.64
35676;BME280;21790;42.668;23.298;2023-04-28T14:37:31;94751.75;;;22.78;20.10
35676;BME280;21790;42.668;23.298;2023-04-28T14:40:00;94747.09;;;22.93;20.47
35676;BME280;21790;42.668;23.298;2023-04-28T14:45:55;94729.31;;;22.72;20.68
35676;BME280;21790;42.668;23.298;2023-04-28T14:48:22;94741.00;;;22.76;20.30
35676;BME280;21790;42.668;23.298;2023-04-28T14:51:24;94744.25;;;22.67;20.54
35676;BME280;21790;42.668;23.298;2023-04-28T14:53:53;94739.03;;;22.58;20.80
35676;BME280;21790;42.668;23.298;2023-04-28T14:56:44;94736.03;;;22.82;20.35
35676;BME280;21790;42.668;23.298;2023-04-28T15:04:15;94712.34;;;22.33;20.85
35676;BME280;21790;42.668;23.298;2023-04-28T15:06:41;94734.91;;;22.59;20.95
35676;BME280;21790;42.668;23.298;2023-04-28T15:09:08;94744.34;;;22.62;20.87